KRKD/RKD METAR and TAF weather

Enter ICAO airport designator
Station Type Date Time Source
KRKD METAR 2021/10/24 21:56 UTC NOAA

KRKD 242156Z AUTO RMK AO2 SLPNO PWINO FZRANO $


Station Type Date Time Source
KRKD Decoded METAR 2021/10/24 21:56 UTC NOAA

Rockland, Knox County Regional Airport, ME, United States (KRKD) 44-04N 069-06W
Oct 24, 2021 - 05:56 PM EDT / 2021.10.24 2156 UTC
ob: KRKD 242156Z AUTO RMK AO2 SLPNO PWINO FZRANO
cycle: 22

Station Type Date Time Source
KRKD TAF 2021/10/24 18:39 UTC NOAA

TAF
AMD KRKD 241735Z 2418/2518 28012G20KT P6SM FEW250
FM242300 28007KT P6SM FEW100
FM251500 07006KT 4SM -SHRA OVC020

Example: see airport list